Flight Track Log - Related Links

Times and Time Zones

All times are in EDT time to prevent confusion due to time zone crossing. See the ASH3770 flight status page for this flight to view local times or setup timezone preferences in your user account.

Time Position Orientation Groundspeed Altitude Reporting Facility
EDT Latitude Longitude Course Direction KTS MPH feet Rate Location/Type
Sun 05:12:22 PM 38.9667 -77.4333 290° West 155 178 2,100  Level Potomac TRACON
Sun 05:13:17 PM 39.0167 -77.4333 360° North 229 264 3,500 2,296 Climbing Potomac TRACON
Sun 05:14:17 PM 39.0667 -77.4833 322° Northwest 252 290 6,500 3,050 Climbing Potomac TRACON
Sun 05:15:00 PM 39.2814 -77.5388 344° North  Level FlightAware Approximate
Sun 05:15:17 PM 39.1333 -77.5167 339° North 266 306 9,600  Level Potomac TRACON
Sun 05:16:00 PM 39.3692 -77.5718 344° North  Level FlightAware Approximate
Sun 05:17:00 PM 39.4532 -77.5947 290° West  Level FlightAware Approximate
Sun 05:17:06 PM 39.2697 -77.6022 334° Northwest 300 345 13,100  Level Washington Center
Sun 05:18:04 PM 39.3436 -77.6714 324° Northwest 320 368 15,200 2,186 Climbing Washington Center
Sun 05:19:04 PM 39.4194 -77.7433 324° Northwest 337 388 17,400 1,455 Climbing Washington Center
Sun 05:21:22 PM 39.5656 -77.9467 313° West 346 398 20,000 788 Climbing Cleveland Center
Sun 05:22:22 PM 39.6036 -78.0667 292° West 346 398 20,000  Level Cleveland Center
Sun 05:23:22 PM 39.6375 -78.1839 291° West 351 404 20,000  Level Cleveland Center
Sun 05:24:22 PM 39.6711 -78.2961 291° West 351 404 20,000  Level Cleveland Center
Sun 05:25:22 PM 39.7044 -78.4083 291° West 344 396 20,000  Level Cleveland Center
Sun 05:26:22 PM 39.7378 -78.5233 291° West 344 396 20,000  Level Cleveland Center
Sun 05:27:22 PM 39.7711 -78.6358 291° West 344 396 20,000  Level Cleveland Center
Sun 05:28:22 PM 39.8003 -78.7592 287° West 338 389 20,000  Level Cleveland Center
Sun 05:29:22 PM 39.8333 -78.8664 292° West 333 383 20,000  Level Cleveland Center
Sun 05:30:22 PM 39.8681 -78.9736 293° West 328 377 20,000 -100 Level Cleveland Center
Sun 05:31:22 PM 39.9011 -79.0867 291° West 328 377 19,800 -5,000 Descending Cleveland Center
Sun 05:32:22 PM 39.9294 -79.1942 289° West 328 377 10,000 -1,600 Descending Cleveland Center
Sun 05:33:22 PM 39.9578 -79.2967 290° West 323 372 16,600 2,400 Climbing Cleveland Center
Sun 05:34:22 PM 39.9942 -79.3881 297° West 312 359 14,800 -1,800 Descending Cleveland Center
Sun 05:35:22 PM 40.0472 -79.4711 310° West 293 337 13,000 -1,850 Descending Cleveland Center
Sun 05:36:22 PM 40.1022 -79.5489 313° West 298 343 11,100 -1,550 Descending Cleveland Center
Sun 05:37:22 PM 40.1589 -79.6186 317° Northwest 290 334 9,900 -700 Descending Cleveland Center
Sun 05:38:22 PM 40.2117 -79.6833 317° Northwest 275 316 9,700 -1,000 Descending Cleveland Center
Sun 05:39:22 PM 40.2622 -79.7478 316° Northwest 264 304 7,900 -1,750 Descending Cleveland Center
Sun 05:40:22 PM 40.3147 -79.8097 318° Northwest 258 297 6,200 -1,150 Descending Cleveland Center
Sun 05:41:22 PM 40.3608 -79.8692 316° Northwest 245 282 5,600 -950 Descending Cleveland Center
Sun 05:42:22 PM 40.4008 -79.9206 316° Northwest 224 258 4,300 -950 Descending Cleveland Center
Sun 05:43:22 PM 40.4408 -79.9692 317° Northwest 206 237 3,700 -650 Descending Cleveland Center
Sun 05:44:22 PM 40.4764 -80.0208 312° West 194 223 3,000 -700 Descending Cleveland Center

Login

Don't have an account? Register now (free) for customized features, flight alerts, and more!